Time;durP1;ratioP1;P1;durP2;ratioP2;P2;SDS_P1;SDS_P2;PMS_P1;PMS_P2;Temp;Humidity;BMP_temperature;BMP_pressure;BME280_temperature;BME280_humidity;BME280_pressure;Samples;Min_cycle;Max_cycle;Signal;HPM_P1;HPM_P2
2023/03/21 00:03:20;;;;;;;6.23;2.80;;;11.20;75.30;;;;;;20917605;28;20260;-73
2023/03/21 00:13:22;;;;;;;6.53;2.97;;;11.20;75.90;;;;;;20917251;28;20575;-76
2023/03/21 00:23:25;;;;;;;6.10;2.73;;;11.30;76.00;;;;;;20915725;28;20243;-78
2023/03/21 00:33:27;;;;;;;8.07;2.90;;;11.20;76.20;;;;;;20915281;28;20673;-78
2023/03/21 00:43:29;;;;;;;5.83;2.73;;;11.20;76.80;;;;;;20914881;28;20289;-80
2023/03/21 00:53:30;;;;;;;4.70;3.03;;;11.20;77.20;;;;;;20913990;28;20206;-72
2023/03/21 01:03:41;;;;;;;11.60;3.63;;;11.10;78.00;;;;;;20914227;28;20620;-74
2023/03/21 01:13:43;;;;;;;8.40;3.47;;;11.00;78.60;;;;;;20913476;28;20266;-78
2023/03/21 01:23:58;;;;;;;5.43;3.10;;;10.90;79.20;;;;;;20912090;28;20269;-78
2023/03/21 01:34:00;;;;;;;7.73;3.47;;;10.80;80.00;;;;;;20911956;28;20251;-79
2023/03/21 01:44:03;;;;;;;8.30;3.63;;;10.80;80.80;;;;;;20911813;28;20287;-78
2023/03/21 01:54:06;;;;;;;8.67;3.00;;;10.60;81.50;;;;;;20910604;28;20215;-79
2023/03/21 02:04:09;;;;;;;6.77;3.07;;;10.50;82.20;;;;;;20910787;28;20244;-79
2023/03/21 02:14:17;;;;;;;6.23;3.17;;;10.60;82.90;;;;;;20922437;28;20230;-78
2023/03/21 02:24:56;;;;;;;12.13;3.87;;;10.50;83.20;;;;;;20925219;28;20622;-78
2023/03/21 02:35:34;;;;;;;9.20;2.97;;;10.10;85.20;;;;;;20924663;28;20205;-78
2023/03/21 02:46:09;;;;;;;7.87;3.40;;;9.90;86.80;;;;;;20923987;28;20591;-78
2023/03/21 02:56:11;;;;;;;6.83;3.30;;;9.80;87.70;;;;;;20920632;28;20666;-75
2023/03/21 03:06:47;;;;;;;4.43;2.70;;;9.60;88.00;;;;;;20922081;28;20290;-77
2023/03/21 03:17:36;;;;;;;6.87;2.97;;;9.50;88.10;;;;;;20921665;28;20605;-76
2023/03/21 03:27:43;;;;;;;9.37;3.40;;;9.40;88.60;;;;;;20894381;28;20300;-79
2023/03/21 03:37:50;;;;;;;5.33;2.90;;;9.20;89.40;;;;;;20920226;28;20264;-80
2023/03/21 03:48:12;;;;;;;5.00;2.70;;;9.00;89.90;;;;;;20918958;28;20763;-78
2023/03/21 03:58:18;;;;;;;6.27;2.87;;;8.90;90.30;;;;;;20918727;28;20698;-79
2023/03/21 04:08:25;;;;;;;8.77;3.40;;;8.80;90.50;;;;;;20917212;28;20242;-79
2023/03/21 04:18:26;;;;;;;9.03;3.50;;;8.80;90.70;;;;;;20916584;28;20204;-78
2023/03/21 04:28:28;;;;;;;7.13;2.90;;;8.70;90.90;;;;;;20916016;28;20286;-80
2023/03/21 04:38:30;;;;;;;6.50;2.83;;;8.60;91.10;;;;;;20914369;28;20231;-79
2023/03/21 04:48:31;;;;;;;8.40;3.43;;;8.70;91.40;;;;;;20914233;28;20292;-80
2023/03/21 04:58:33;;;;;;;10.80;3.67;;;8.80;91.50;;;;;;20914053;28;20208;-82
2023/03/21 05:08:35;;;;;;;11.33;3.20;;;8.80;91.50;;;;;;20913120;28;20242;-77
2023/03/21 05:18:37;;;;;;;6.37;3.30;;;8.80;91.60;;;;;;20912600;28;20645;-78
2023/03/21 05:28:39;;;;;;;7.13;3.40;;;8.90;91.90;;;;;;20912037;28;20243;-74
2023/03/21 05:38:44;;;;;;;6.40;3.50;;;8.80;92.00;;;;;;20911913;28;20690;-79
2023/03/21 05:48:46;;;;;;;7.37;4.07;;;8.70;92.30;;;;;;20922762;28;20243;-80
2023/03/21 05:58:47;;;;;;;10.00;4.77;;;8.80;92.60;;;;;;20927523;28;20208;-81
2023/03/21 06:08:49;;;;;;;9.23;4.13;;;9.00;92.70;;;;;;20926598;28;20238;-76
2023/03/21 06:18:51;;;;;;;14.97;3.67;;;9.00;92.80;;;;;;20924727;28;20664;-74
2023/03/21 06:28:52;;;;;;;9.87;4.27;;;9.00;93.00;;;;;;20924645;28;20243;-75
2023/03/21 06:38:54;;;;;;;8.57;3.90;;;9.10;93.10;;;;;;20923929;28;20249;-77
2023/03/21 06:48:56;;;;;;;11.23;4.10;;;9.20;93.10;;;;;;20922717;28;20231;-72
2023/03/21 06:58:57;;;;;;;12.93;4.87;;;9.20;93.00;;;;;;20921909;28;20660;-76
2023/03/21 07:08:59;;;;;;;12.63;5.17;;;10.10;92.30;;;;;;20921525;28;20233;-78
2023/03/21 07:19:01;;;;;;;10.63;5.50;;;10.50;92.10;;;;;;20920581;28;20608;-76
2023/03/21 07:29:03;;;;;;;9.73;4.73;;;10.90;91.70;;;;;;20920108;28;20575;-72
2023/03/21 07:39:05;;;;;;;7.63;4.33;;;11.40;91.10;;;;;;20918923;28;20316;-75
2023/03/21 07:49:07;;;;;;;13.77;5.10;;;12.00;90.40;;;;;;20917577;28;20237;-77
2023/03/21 07:59:09;;;;;;;9.90;5.00;;;12.10;89.20;;;;;;20917738;28;20212;-82
2023/03/21 08:09:11;;;;;;;7.97;4.60;;;12.20;88.20;;;;;;20914969;28;20244;-72
2023/03/21 08:19:12;;;;;;;9.93;4.40;;;12.40;86.10;;;;;;20946516;28;20271;-81
2023/03/21 08:29:15;;;;;;;8.67;4.63;;;12.90;84.60;;;;;;20915097;28;20250;-81
2023/03/21 08:39:16;;;;;;;6.67;4.37;;;13.40;83.10;;;;;;20912431;28;20257;-77
2023/03/21 08:49:18;;;;;;;7.53;3.97;;;13.50;81.00;;;;;;20913105;28;20243;-75
2023/03/21 08:59:20;;;;;;;6.77;4.00;;;13.50;78.60;;;;;;20944871;28;20212;-80
2023/03/21 09:09:22;;;;;;;7.57;3.70;;;13.60;78.40;;;;;;20915501;28;20605;-73
2023/03/21 09:19:24;;;;;;;11.30;3.63;;;13.70;76.40;;;;;;20913384;28;20215;-73
2023/03/21 09:29:26;;;;;;;9.83;4.07;;;13.80;74.80;;;;;;20911513;28;20243;-74
2023/03/21 09:42:29;;;;;;;6.63;3.60;;;14.00;73.40;;;;;;20984304;28;20569;-72
2023/03/21 09:52:58;;;;;;;6.87;3.60;;;14.30;72.80;;;;;;20982718;28;20210;-74
2023/03/21 10:03:05;;;;;;;7.77;3.27;;;14.80;71.50;;;;;;20982294;28;20215;-72
2023/03/21 10:13:14;;;;;;;5.53;3.20;;;14.90;69.90;;;;;;20981368;28;20230;-80
2023/03/21 10:23:19;;;;;;;7.53;3.70;;;15.30;69.30;;;;;;20979782;28;20678;-73
2023/03/21 10:33:25;;;;;;;6.33;3.03;;;15.40;68.40;;;;;;20978792;28;20235;-71
2023/03/21 10:46:32;;;;;;;9.13;3.67;;;15.80;67.80;;;;;;20983372;28;20600;-71
2023/03/21 10:56:53;;;;;;;6.23;3.10;;;15.90;67.70;;;;;;20982856;28;20229;-74
2023/03/21 11:07:01;;;;;;;4.60;2.57;;;16.30;66.30;;;;;;20980989;28;20267;-75
2023/03/21 11:17:18;;;;;;;5.77;2.80;;;16.70;65.20;;;;;;20980903;28;20259;-79
2023/03/21 11:27:20;;;;;;;7.37;2.70;;;16.60;64.30;;;;;;20980622;28;20214;-74
2023/03/21 11:37:30;;;;;;;6.27;2.90;;;16.50;63.70;;;;;;20978761;28;20247;-83
2023/03/21 11:47:32;;;;;;;10.03;2.80;;;16.60;63.70;;;;;;20978567;28;20538;-78
2023/03/21 11:57:50;;;;;;;7.03;2.93;;;16.70;62.80;;;;;;20924123;28;20266;-76
2023/03/21 12:08:19;;;;;;;12.67;2.37;;;16.90;62.90;;;;;;20921766;28;20233;-75
2023/03/21 12:18:44;;;;;;;6.33;3.00;;;17.10;62.90;;;;;;20920808;28;20304;-76
2023/03/21 12:28:49;;;;;;;6.43;2.90;;;17.10;63.00;;;;;;20920419;28;20256;-79
2023/03/21 12:39:17;;;;;;;4.53;2.40;;;17.00;62.70;;;;;;20919331;28;20249;-82
2023/03/21 12:49:28;;;;;;;7.43;2.50;;;16.90;62.70;;;;;;20914067;28;20222;-73
2023/03/21 12:59:42;;;;;;;6.30;2.60;;;16.90;62.60;;;;;;20918192;28;20842;-73
2023/03/21 13:09:43;;;;;;;10.03;2.50;;;16.90;61.40;;;;;;20916127;28;20215;-73
2023/03/21 13:20:18;;;;;;;9.27;2.70;;;16.80;61.30;;;;;;20915868;28;20236;-78
2023/03/21 13:34:12;;;;;;;21.07;3.83;;;16.70;61.50;;;;;;20984040;28;20575;-74
2023/03/21 13:44:40;;;;;;;8.10;1.93;;;16.70;61.60;;;;;;20982564;28;20267;-78
2023/03/21 13:54:54;;;;;;;8.97;2.60;;;16.60;61.90;;;;;;20981011;28;20219;-78
2023/03/21 14:05:03;;;;;;;12.07;2.87;;;16.40;62.30;;;;;;20980524;28;20247;-81
2023/03/21 14:15:30;;;;;;;6.50;2.50;;;16.00;63.40;;;;;;20980981;28;20686;-76
2023/03/21 14:33:38;;;;;;;5.07;2.50;;;15.50;66.40;;;;;;21068463;27;20998;-77
2023/03/21 14:43:42;;;;;;;6.10;2.47;;;15.10;70.20;;;;;;21067469;28;20655;-80
2023/03/21 14:53:44;;;;;;;5.33;2.73;;;15.10;71.30;;;;;;21066195;28;20203;-78
2023/03/21 15:03:50;;;;;;;5.83;2.70;;;14.50;76.30;;;;;;21065451;28;20648;-81
2023/03/21 15:13:53;;;;;;;7.87;3.10;;;14.50;78.30;;;;;;21065218;28;20210;-78
2023/03/21 15:24:02;;;;;;;6.53;2.90;;;14.20;82.10;;;;;;21063387;28;20237;-79
2023/03/21 15:34:05;;;;;;;6.43;2.77;;;14.00;84.10;;;;;;21040274;28;20527;-75
2023/03/21 15:44:13;;;;;;;8.03;3.33;;;13.90;85.10;;;;;;20938892;28;20229;-78
2023/03/21 15:54:22;;;;;;;7.40;3.97;;;13.60;88.80;;;;;;21002965;28;20207;-71
2023/03/21 16:04:25;;;;;;;9.10;3.63;;;13.50;90.20;;;;;;20979022;28;20227;-74
2023/03/21 16:14:28;;;;;;;5.37;3.17;;;13.50;91.30;;;;;;20921577;28;20261;-81
2023/03/21 16:24:29;;;;;;;5.37;3.47;;;13.50;91.40;;;;;;20920567;28;20237;-74
2023/03/21 16:34:31;;;;;;;8.27;3.50;;;13.30;92.70;;;;;;20945355;28;20237;-79
2023/03/21 16:44:34;;;;;;;8.57;3.90;;;13.30;93.30;;;;;;20938084;28;20289;-77
2023/03/21 16:54:37;;;;;;;11.10;4.37;;;13.20;94.30;;;;;;20966634;28;20216;-77
2023/03/21 17:04:39;;;;;;;10.20;4.67;;;13.10;95.00;;;;;;20979331;28;20236;-74
2023/03/21 17:14:42;;;;;;;7.53;4.60;;;12.90;95.80;;;;;;20927332;28;20255;-74
2023/03/21 17:24:47;;;;;;;9.37;4.73;;;12.80;96.60;;;;;;20930841;28;20236;-75
2023/03/21 17:34:51;;;;;;;11.73;5.67;;;12.90;97.10;;;;;;20997888;28;20215;-71
2023/03/21 17:44:53;;;;;;;13.93;5.77;;;12.80;97.50;;;;;;20995989;28;20580;-72
2023/03/21 17:54:55;;;;;;;10.07;6.03;;;12.80;97.60;;;;;;20996678;28;20674;-76
2023/03/21 18:04:56;;;;;;;25.17;11.57;;;12.60;98.30;;;;;;20928604;28;20240;-73
2023/03/21 18:14:58;;;;;;;22.27;8.70;;;12.60;98.80;;;;;;20912374;28;20218;-72
2023/03/21 18:25:00;;;;;;;18.57;8.27;;;12.60;99.20;;;;;;20911991;28;20244;-74
2023/03/21 18:35:03;;;;;;;13.70;8.27;;;12.60;99.50;;;;;;20910968;28;20261;-72
2023/03/21 18:45:07;;;;;;;17.33;8.10;;;12.60;99.80;;;;;;20911050;28;20231;-73
2023/03/21 18:55:09;;;;;;;14.00;8.70;;;12.50;99.70;;;;;;20911242;28;20203;-75
2023/03/21 19:05:11;;;;;;;20.93;9.33;;;12.40;99.90;;;;;;20978544;28;20235;-76
2023/03/21 19:15:16;;;;;;;15.87;9.73;;;12.20;99.90;;;;;;20998270;28;20687;-75
2023/03/21 19:25:18;;;;;;;22.50;11.50;;;12.10;99.90;;;;;;20971800;28;20346;-73
2023/03/21 19:35:20;;;;;;;16.90;11.43;;;11.60;99.90;;;;;;20963735;28;20207;-75
2023/03/21 19:45:22;;;;;;;41.23;23.13;;;11.90;99.90;;;;;;20943065;28;20245;-74
2023/03/21 19:55:24;;;;;;;26.07;12.00;;;11.80;99.90;;;;;;20925657;28;20628;-74
2023/03/21 20:05:27;;;;;;;19.47;10.77;;;11.60;99.90;;;;;;20959978;28;20241;-73
2023/03/21 20:15:29;;;;;;;21.20;12.30;;;11.50;99.90;;;;;;20954546;28;20612;-74
2023/03/21 20:25:32;;;;;;;24.97;13.23;;;11.50;99.90;;;;;;20940291;28;20288;-72
2023/03/21 20:35:34;;;;;;;20.47;12.40;;;11.20;99.90;;;;;;20953027;28;20637;-73
2023/03/21 20:46:02;;;;;;;18.40;12.17;;;11.10;99.90;;;;;;20953700;28;20562;-73
2023/03/21 20:56:05;;;;;;;23.00;13.40;;;11.00;99.90;;;;;;20959879;28;20616;-73
2023/03/21 21:06:13;;;;;;;23.40;13.80;;;10.80;99.90;;;;;;20939068;28;20265;-76
2023/03/21 21:16:15;;;;;;;22.40;13.87;;;10.70;99.90;;;;;;20914937;28;20216;-74
2023/03/21 21:26:17;;;;;;;19.87;12.37;;;10.50;99.90;;;;;;20915891;28;20256;-76
2023/03/21 21:36:21;;;;;;;21.47;13.87;;;10.50;99.90;;;;;;20914961;28;20557;-76
2023/03/21 21:46:23;;;;;;;24.20;13.20;;;10.20;99.90;;;;;;20914460;28;20237;-72
2023/03/21 21:56:30;;;;;;;20.67;12.57;;;10.20;99.90;;;;;;20914054;28;20239;-74
2023/03/21 22:06:33;;;;;;;19.10;12.93;;;10.10;99.90;;;;;;20913307;28;20286;-71
2023/03/21 22:16:35;;;;;;;20.07;13.67;;;9.90;99.90;;;;;;20912901;28;20263;-71
2023/03/21 22:26:38;;;;;;;22.30;14.57;;;9.90;99.90;;;;;;20912373;28;20247;-74
2023/03/21 22:36:45;;;;;;;19.30;12.43;;;9.70;99.90;;;;;;20911736;28;20214;-73
2023/03/21 22:46:47;;;;;;;19.80;12.77;;;9.50;99.90;;;;;;20914101;28;20262;-73
2023/03/21 22:56:49;;;;;;;21.27;12.87;;;9.40;99.90;;;;;;20928190;28;20211;-74
2023/03/21 23:06:50;;;;;;;19.63;12.37;;;9.20;99.90;;;;;;20926905;28;20598;-76
2023/03/21 23:16:52;;;;;;;19.13;11.70;;;9.20;99.90;;;;;;20926217;28;20214;-74
2023/03/21 23:26:54;;;;;;;20.07;11.60;;;9.10;99.90;;;;;;20925539;28;20247;-74
2023/03/21 23:36:56;;;;;;;22.07;12.33;;;9.10;99.90;;;;;;20924698;28;20208;-71
2023/03/21 23:46:57;;;;;;;16.07;10.97;;;9.00;99.90;;;;;;20923883;28;20230;-73
2023/03/21 23:56:59;;;;;;;27.23;12.80;;;9.00;99.90;;;;;;20923061;28;20204;-76
